Time;durP1;ratioP1;P1;durP2;ratioP2;P2;SDS_P1;SDS_P2;PMS_P1;PMS_P2;Temp;Humidity;BMP_temperature;BMP_pressure;BME280_temperature;BME280_humidity;BME280_pressure;Samples;Min_cycle;Max_cycle;Signal;HPM_P1;HPM_P2
2021/07/03 03:02:13;;;;;;;12.85;7.90;;;13.60;99.90;;;;;;5444404;23;94045;-82
2021/07/03 03:08:01;;;;;;;9.70;7.53;;;13.50;99.90;;;;;;4895696;28;91459;-82
2021/07/03 03:10:27;;;;;;;9.38;6.70;;;13.50;99.90;;;;;;4906169;28;92141;-81
2021/07/03 03:12:53;;;;;;;10.50;7.68;;;13.50;99.90;;;;;;4901624;28;92784;-82
2021/07/03 03:15:19;;;;;;;9.88;6.72;;;13.50;99.90;;;;;;4898153;28;92028;-82
2021/07/03 03:17:45;;;;;;;8.23;6.32;;;13.50;99.90;;;;;;4918823;28;92107;-82
2021/07/03 03:20:11;;;;;;;10.98;6.20;;;13.50;99.90;;;;;;4917495;28;92792;-80
2021/07/03 03:22:39;;;;;;;9.32;6.72;;;13.40;99.90;;;;;;4897914;28;93852;-81
2021/07/03 03:25:06;;;;;;;9.15;6.55;;;13.40;99.90;;;;;;4901570;28;91867;-81
2021/07/03 03:27:32;;;;;;;9.13;6.65;;;13.40;99.90;;;;;;4901759;28;91738;-81
2021/07/03 03:29:58;;;;;;;10.65;6.93;;;13.40;99.90;;;;;;4897411;28;91755;-82
2021/07/03 03:32:23;;;;;;;10.43;6.70;;;13.30;99.90;;;;;;4916628;28;91884;-82
2021/07/03 03:34:49;;;;;;;11.32;6.88;;;13.30;99.90;;;;;;4910623;28;91744;-82
2021/07/03 03:44:11;;;;;;;9.15;6.97;;;13.30;99.90;;;;;;4893072;28;91878;-82
2021/07/03 03:46:37;;;;;;;9.18;6.30;;;13.40;99.90;;;;;;4910163;28;92352;-81
2021/07/03 03:49:03;;;;;;;8.57;6.15;;;13.40;99.90;;;;;;4915703;28;92044;-81
2021/07/03 03:51:29;;;;;;;10.80;6.75;;;13.40;99.90;;;;;;4912695;28;92338;-81
2021/07/03 03:53:54;;;;;;;9.80;6.47;;;13.50;99.90;;;;;;4915228;28;92335;-81
2021/07/03 03:56:20;;;;;;;8.82;6.18;;;13.50;99.90;;;;;;4895441;28;91898;-81
2021/07/03 03:58:46;;;;;;;8.82;6.40;;;13.50;99.90;;;;;;4895601;28;92178;-82
2021/07/03 04:01:12;;;;;;;9.00;6.13;;;13.70;99.90;;;;;;4903683;28;92797;-82
2021/07/03 04:03:37;;;;;;;6.88;5.57;;;13.60;99.90;;;;;;4914202;28;91996;-82
2021/07/03 04:06:03;;;;;;;9.98;5.80;;;13.70;99.90;;;;;;4897383;28;91901;-82
2021/07/03 04:08:30;;;;;;;7.20;5.95;;;13.70;99.90;;;;;;4896088;28;92097;-82
2021/07/03 04:10:56;;;;;;;8.25;6.20;;;13.80;99.90;;;;;;4895987;28;92606;-82
2021/07/03 04:13:21;;;;;;;7.05;5.25;;;13.80;99.90;;;;;;4897024;28;93238;-82
2021/07/03 04:15:47;;;;;;;9.68;6.22;;;13.90;99.90;;;;;;4894755;28;91855;-82
2021/07/03 04:18:13;;;;;;;7.90;5.68;;;13.90;99.90;;;;;;4896272;28;91712;-82
2021/07/03 04:20:39;;;;;;;9.60;6.25;;;13.90;99.90;;;;;;4896162;28;92136;-82
2021/07/03 04:23:04;;;;;;;9.45;5.95;;;14.00;99.90;;;;;;4895918;28;92239;-81
2021/07/03 04:25:30;;;;;;;8.52;7.63;;;;;;;;;;4897585;28;91863;-82
2021/07/03 04:27:56;;;;;;;8.88;6.22;;;14.10;99.90;;;;;;4897385;28;90676;-82
2021/07/03 04:30:22;;;;;;;9.77;6.18;;;14.20;99.90;;;;;;4897579;28;91843;-79
2021/07/03 04:32:48;;;;;;;7.28;5.75;;;14.30;99.90;;;;;;4896253;28;91872;-79
2021/07/03 04:35:15;;;;;;;8.02;5.97;;;14.30;99.90;;;;;;4896601;28;92377;-79
2021/07/03 04:37:41;;;;;;;7.00;5.50;;;14.40;99.90;;;;;;4898291;28;92094;-79
2021/07/03 04:40:08;;;;;;;8.27;4.82;;;14.50;99.90;;;;;;4896729;28;92261;-79
2021/07/03 04:42:35;;;;;;;7.65;5.82;;;14.60;99.90;;;;;;4902498;28;92038;-80
2021/07/03 04:45:00;;;;;;;8.77;5.30;;;14.80;99.90;;;;;;4904517;28;91112;-81
2021/07/03 04:47:26;;;;;;;6.95;5.32;;;14.90;99.90;;;;;;4906160;28;91917;-80
2021/07/03 04:49:51;;;;;;;7.05;5.45;;;15.00;99.90;;;;;;4904277;28;92199;-80
2021/07/03 04:52:17;;;;;;;6.32;5.40;;;15.10;99.90;;;;;;4901517;28;92032;-82
2021/07/03 04:54:43;;;;;;;8.77;5.70;;;15.20;99.90;;;;;;4894450;28;91844;-82
2021/07/03 04:57:11;;;;;;;6.55;5.25;;;15.30;99.90;;;;;;4896362;28;91732;-82
2021/07/03 04:59:40;;;;;;;6.70;5.40;;;15.40;99.90;;;;;;4891795;28;93422;-84
2021/07/03 05:02:10;;;;;;;7.22;5.53;;;15.40;99.90;;;;;;4902392;28;93423;-83
2021/07/03 05:04:36;;;;;;;6.10;5.20;;;15.50;99.90;;;;;;4919361;28;91860;-84
2021/07/03 05:07:03;;;;;;;7.68;5.60;;;15.60;99.90;;;;;;4917513;28;91864;-85
2021/07/03 05:09:29;;;;;;;9.88;5.20;;;15.70;99.90;;;;;;4921686;28;91700;-85
2021/07/03 05:11:55;;;;;;;6.30;5.28;;;15.70;99.90;;;;;;4926016;28;92060;-84
2021/07/03 05:14:21;;;;;;;7.43;5.20;;;15.80;99.90;;;;;;4923608;28;91469;-85
2021/07/03 05:16:47;;;;;;;5.95;4.93;;;15.80;99.90;;;;;;4919266;28;91293;-83
2021/07/03 05:19:14;;;;;;;7.07;5.50;;;15.90;99.90;;;;;;4921257;28;93350;-83
2021/07/03 05:21:39;;;;;;;5.85;5.10;;;16.00;99.90;;;;;;4918128;28;92160;-84
2021/07/03 05:24:05;;;;;;;6.22;5.03;;;16.00;99.90;;;;;;4915306;28;92851;-84
2021/07/03 05:26:31;;;;;;;6.45;5.22;;;16.10;99.90;;;;;;4922039;28;92041;-84
2021/07/03 05:28:57;;;;;;;7.50;5.60;;;16.20;99.90;;;;;;4917893;28;91953;-83
2021/07/03 05:31:23;;;;;;;7.28;5.72;;;16.30;99.90;;;;;;4929231;28;92124;-84
2021/07/03 05:33:48;;;;;;;7.40;5.65;;;16.30;99.90;;;;;;4922855;28;92003;-85
2021/07/03 05:36:14;;;;;;;7.45;5.40;;;16.40;99.90;;;;;;4916068;28;91674;-84
2021/07/03 05:38:46;;;;;;;5.85;4.93;;;16.40;99.90;;;;;;4917354;28;92279;-84
2021/07/03 05:41:13;;;;;;;7.25;5.32;;;16.50;99.90;;;;;;4920399;28;91981;-84
2021/07/03 05:43:39;;;;;;;5.75;4.80;;;16.60;99.90;;;;;;4923792;28;92044;-84
2021/07/03 05:46:09;;;;;;;6.15;4.65;;;16.80;99.90;;;;;;4924426;28;91400;-85
2021/07/03 05:48:36;;;;;;;5.53;4.90;;;16.90;99.90;;;;;;4917158;28;93056;-84
2021/07/03 05:51:02;;;;;;;6.53;5.30;;;16.90;99.90;;;;;;4917472;28;92925;-84
2021/07/03 05:53:28;;;;;;;6.95;5.18;;;17.10;99.90;;;;;;4918205;28;91648;-84
2021/07/03 05:55:54;;;;;;;6.63;4.88;;;17.10;99.90;;;;;;4913853;28;91995;-84
2021/07/03 05:58:20;;;;;;;6.60;4.90;;;17.30;99.90;;;;;;4918033;28;92157;-83
2021/07/03 06:00:47;;;;;;;7.22;5.38;;;17.40;99.90;;;;;;4915474;28;92447;-82
2021/07/03 06:03:13;;;;;;;5.45;4.65;;;17.50;99.90;;;;;;4913995;28;92085;-83
2021/07/03 06:05:39;;;;;;;7.78;5.07;;;17.50;99.90;;;;;;4925227;28;91023;-83
2021/07/03 06:08:05;;;;;;;9.05;5.40;;;17.50;99.90;;;;;;4928026;28;92075;-83
2021/07/03 06:10:31;;;;;;;6.43;4.78;;;17.50;99.90;;;;;;4921694;28;93388;-83
2021/07/03 06:12:57;;;;;;;6.53;5.25;;;17.60;99.90;;;;;;4915667;28;92642;-82
2021/07/03 06:15:23;;;;;;;5.82;5.30;;;17.50;99.90;;;;;;4923679;28;93023;-83
2021/07/03 06:17:49;;;;;;;5.30;4.60;;;17.60;99.90;;;;;;4915072;28;91862;-82
2021/07/03 06:20:15;;;;;;;6.95;4.93;;;17.70;99.90;;;;;;4915440;28;91766;-81
2021/07/03 06:22:41;;;;;;;9.95;4.90;;;17.80;99.60;;;;;;4918785;28;91772;-82
2021/07/03 06:25:09;;;;;;;5.55;4.75;;;17.90;99.90;;;;;;4925933;28;91299;-81
2021/07/03 06:27:36;;;;;;;6.28;5.15;;;18.00;99.90;;;;;;4919890;28;92140;-82
2021/07/03 06:30:22;;;;;;;6.18;5.25;;;18.20;99.30;;;;;;4915462;28;91916;-81
2021/07/03 06:32:48;;;;;;;6.82;4.85;;;18.40;99.50;;;;;;4914544;28;91743;-80
2021/07/03 06:35:48;;;;;;;6.38;5.40;;;18.60;99.00;;;;;;4928753;28;92106;-81
2021/07/03 06:38:13;;;;;;;7.82;5.25;;;18.70;97.80;;;;;;4898734;28;95960;-82
2021/07/03 06:40:42;;;;;;;7.22;6.53;;;19.00;97.40;;;;;;4933772;28;92136;-81
2021/07/03 06:43:08;;;;;;;6.00;4.40;;;18.90;97.60;;;;;;4934880;28;91726;-82
2021/07/03 06:45:34;;;;;;;7.13;6.30;;;;;;;;;;4920018;28;91823;-81
2021/07/03 06:48:01;;;;;;;6.95;5.20;;;19.30;94.40;;;;;;4938345;28;94216;-81
2021/07/03 06:50:26;;;;;;;8.38;4.63;;;19.60;94.80;;;;;;4936245;28;91864;-82
2021/07/03 06:52:52;;;;;;;6.57;5.20;;;19.90;94.20;;;;;;4917594;28;91829;-82
2021/07/03 06:55:18;;;;;;;5.28;4.78;;;20.10;93.60;;;;;;4902965;28;91116;-80
2021/07/03 06:57:44;;;;;;;4.55;4.15;;;20.30;92.50;;;;;;4921339;28;91347;-80
2021/07/03 07:00:10;;;;;;;5.47;4.88;;;20.30;92.30;;;;;;4915617;28;91711;-79
2021/07/03 07:02:36;;;;;;;8.77;6.70;;;20.50;92.20;;;;;;4935333;28;92690;-78
2021/07/03 07:05:02;;;;;;;6.82;6.22;;;;;;;;;;4937707;28;91608;-80
2021/07/03 07:07:28;;;;;;;5.43;4.35;;;20.50;90.90;;;;;;4916806;28;92413;-81
2021/07/03 07:09:53;;;;;;;5.70;4.68;;;20.60;91.40;;;;;;4912856;28;91744;-84
2021/07/03 07:12:20;;;;;;;5.95;4.85;;;20.60;90.10;;;;;;4902685;28;92085;-83
2021/07/03 07:14:46;;;;;;;5.18;4.68;;;20.70;90.80;;;;;;4919835;28;91107;-82
2021/07/03 07:23:57;;;;;;;4.88;4.30;;;20.80;89.70;;;;;;4920083;28;91814;-78
2021/07/03 07:29:44;;;;;;;5.25;4.55;;;21.00;90.80;;;;;;4920349;28;92532;-80
2021/07/03 07:32:10;;;;;;;5.35;4.40;;;21.00;84.30;;;;;;4924113;28;92838;-81
2021/07/03 07:34:36;;;;;;;5.20;4.63;;;20.90;86.00;;;;;;4917059;28;91701;-79
2021/07/03 07:37:01;;;;;;;4.55;4.03;;;21.00;85.50;;;;;;4912636;28;91728;-79
2021/07/03 07:39:27;;;;;;;6.28;4.78;;;21.00;85.80;;;;;;4935509;28;92127;-81
2021/07/03 07:41:53;;;;;;;6.28;5.70;;;21.20;82.00;;;;;;4934685;28;91735;-81
2021/07/03 07:44:19;;;;;;;4.65;3.70;;;21.00;82.40;;;;;;4923201;28;92391;-82
2021/07/03 07:46:44;;;;;;;5.13;4.38;;;21.00;82.60;;;;;;4915900;28;91134;-79
2021/07/03 07:49:10;;;;;;;6.35;4.15;;;21.10;83.80;;;;;;4925398;28;91532;-81
2021/07/03 07:51:36;;;;;;;6.70;6.10;;;20.90;82.90;;;;;;4907470;28;93294;-81
2021/07/03 07:54:01;;;;;;;6.30;5.78;;;21.30;82.90;;;;;;4932459;28;92105;-80
2021/07/03 07:56:27;;;;;;;4.70;4.20;;;21.40;83.80;;;;;;4925823;28;92005;-80
2021/07/03 07:58:53;;;;;;;6.10;5.60;;;21.70;83.20;;;;;;4920425;28;93660;-82
2021/07/03 08:01:18;;;;;;;6.80;6.20;;;22.00;82.20;;;;;;4911842;28;91755;-79
2021/07/03 08:03:44;;;;;;;4.60;4.20;;;21.70;82.20;;;;;;4917849;28;91744;-81
2021/07/03 08:06:10;;;;;;;6.25;5.60;;;22.00;80.80;;;;;;4928209;28;91716;-79
2021/07/03 08:08:36;;;;;;;4.75;4.30;;;21.90;78.70;;;;;;4902483;28;93795;-79
2021/07/03 08:11:03;;;;;;;5.78;5.28;;;;;;;;;;4919208;28;93179;-80
2021/07/03 08:13:28;;;;;;;4.45;3.90;;;22.10;80.30;;;;;;4910539;28;91831;-79
2021/07/03 08:15:54;;;;;;;6.35;5.85;;;22.60;81.00;;;;;;4929383;28;92166;-82
2021/07/03 08:18:20;;;;;;;6.28;5.68;;;22.40;77.30;;;;;;4919116;28;93280;-82
2021/07/03 08:20:47;;;;;;;5.63;4.38;;;22.50;77.50;;;;;;4918797;28;92768;-79
2021/07/03 08:23:14;;;;;;;5.75;5.25;;;22.70;79.60;;;;;;4917958;28;91892;-81
2021/07/03 08:25:40;;;;;;;5.80;5.40;;;22.90;77.10;;;;;;4929284;28;91953;-81
2021/07/03 08:28:05;;;;;;;5.72;5.22;;;23.20;74.40;;;;;;4914591;28;92210;-80
2021/07/03 08:30:32;;;;;;;6.25;5.75;;;22.70;74.10;;;;;;4924270;28;91951;-80
2021/07/03 08:32:58;;;;;;;6.97;6.30;;;22.70;73.60;;;;;;4932278;28;91924;-79
2021/07/03 08:35:23;;;;;;;4.05;3.67;;;23.20;74.40;;;;;;4915982;28;91195;-79
2021/07/03 08:37:49;;;;;;;6.30;5.50;;;23.30;75.70;;;;;;4906763;28;93494;-80
2021/07/03 08:40:40;;;;;;;5.10;4.40;;;23.60;76.30;;;;;;4919494;28;92478;-80
2021/07/03 08:43:06;;;;;;;5.57;4.10;;;23.90;75.50;;;;;;4920204;28;92176;-81
2021/07/03 08:45:32;;;;;;;5.90;5.40;;;;;;;;;;4926958;28;92057;-80
2021/07/03 08:47:58;;;;;;;5.88;5.28;;;24.20;73.20;;;;;;4925929;28;96775;-81
2021/07/03 08:50:24;;;;;;;6.45;5.80;;;24.40;80.10;;;;;;4942892;28;91570;-80
2021/07/03 08:52:49;;;;;;;5.70;5.20;;;24.50;82.10;;;;;;4934851;28;91944;-83
2021/07/03 09:02:12;;;;;;;9.20;6.28;;;25.00;78.00;;;;;;4914705;28;91182;-81
2021/07/03 09:04:42;;;;;;;7.03;6.32;;;25.20;76.70;;;;;;4896206;28;91715;-83
2021/07/03 09:07:12;;;;;;;7.90;6.95;;;25.50;76.40;;;;;;4893331;28;93073;-83
2021/07/03 09:09:38;;;;;;;7.53;6.82;;;25.90;76.40;;;;;;4894685;28;93716;-83
2021/07/03 09:12:05;;;;;;;7.88;7.15;;;26.00;77.60;;;;;;4893753;28;93197;-83
2021/07/03 09:18:05;;;;;;;5.80;5.30;;;26.90;72.40;;;;;;4901632;28;90970;-80
2021/07/03 09:20:55;;;;;;;8.25;7.45;;;28.40;67.90;;;;;;4911091;28;91808;-82
2021/07/03 09:23:21;;;;;;;5.88;5.38;;;28.50;68.70;;;;;;4913882;28;91628;-82
2021/07/03 09:25:58;;;;;;;7.25;6.60;;;29.30;65.40;;;;;;4904943;28;91745;-82
2021/07/03 09:28:26;;;;;;;7.72;7.05;;;30.10;58.10;;;;;;4895497;28;91003;-83
2021/07/03 09:30:54;;;;;;;5.53;4.65;;;31.00;59.30;;;;;;4915031;28;92056;-83
2021/07/03 09:33:24;;;;;;;5.63;5.13;;;33.40;51.30;;;;;;4895781;28;94945;-83
2021/07/03 09:36:00;;;;;;;5.22;4.72;;;33.60;51.60;;;;;;4914901;28;92797;-83
2021/07/03 09:38:33;;;;;;;7.15;6.55;;;34.80;46.60;;;;;;4897514;28;92079;-83
2021/07/03 09:41:24;;;;;;;6.90;6.30;;;35.80;43.50;;;;;;4910408;28;91543;-83
2021/07/03 09:43:52;;;;;;;6.13;5.72;;;36.70;40.50;;;;;;4899454;28;93725;-83
2021/07/03 09:46:28;;;;;;;7.70;6.97;;;38.60;39.70;;;;;;4909715;28;92050;-83
2021/07/03 09:48:58;;;;;;;7.25;6.55;;;40.00;38.40;;;;;;4893356;28;91954;-83
2021/07/03 09:51:25;;;;;;;7.28;6.60;;;39.80;38.10;;;;;;4911656;28;93406;-83
2021/07/03 09:53:52;;;;;;;7.10;6.60;;;40.50;39.20;;;;;;4906742;28;91952;-81
2021/07/03 09:56:18;;;;;;;8.00;7.40;;;40.90;37.70;;;;;;4908296;28;91966;-80
2021/07/03 09:58:44;;;;;;;6.20;5.70;;;41.40;37.30;;;;;;4916125;28;91749;-81
2021/07/03 10:01:10;;;;;;;8.23;7.63;;;42.40;35.40;;;;;;4903480;28;93179;-83
2021/07/03 10:03:39;;;;;;;6.53;5.85;;;42.60;35.80;;;;;;4917289;28;94798;-82
2021/07/03 10:06:07;;;;;;;8.30;7.70;;;43.50;33.20;;;;;;4902200;28;91856;-82
2021/07/03 10:08:39;;;;;;;8.70;8.00;;;43.50;34.10;;;;;;4912379;28;91440;-82
2021/07/03 10:11:08;;;;;;;6.60;5.90;;;43.90;34.10;;;;;;4909523;28;92836;-83
2021/07/03 10:13:34;;;;;;;8.83;8.10;;;44.10;32.70;;;;;;4909054;28;92895;-82
2021/07/03 10:16:08;;;;;;;8.82;8.23;;;44.20;33.10;;;;;;4902856;28;91811;-83
2021/07/03 10:18:34;;;;;;;7.40;6.60;;;44.40;33.90;;;;;;4918826;28;90518;-83
2021/07/03 10:21:09;;;;;;;6.60;6.10;;;44.80;33.20;;;;;;4920998;28;92110;-83
2021/07/03 10:23:42;;;;;;;8.35;7.75;;;45.50;32.20;;;;;;4904945;28;93264;-83
2021/07/03 10:26:10;;;;;;;8.98;8.32;;;45.90;31.70;;;;;;4897881;28;92088;-83
2021/07/03 10:28:38;;;;;;;7.90;7.40;;;45.50;32.20;;;;;;4902725;28;91745;-83
2021/07/03 10:31:10;;;;;;;6.77;6.27;;;45.30;32.30;;;;;;4905715;28;92806;-82
2021/07/03 10:33:49;;;;;;;6.50;6.05;;;45.10;32.60;;;;;;4913788;28;91852;-83
2021/07/03 10:36:27;;;;;;;6.60;6.20;;;45.50;32.00;;;;;;4908559;28;92069;-82
2021/07/03 10:38:54;;;;;;;8.57;7.97;;;46.20;31.00;;;;;;4905351;28;92100;-82
2021/07/03 10:41:25;;;;;;;8.18;7.70;;;46.60;30.60;;;;;;4912624;28;92254;-82
2021/07/03 10:43:54;;;;;;;7.90;7.47;;;47.00;31.40;;;;;;4898803;28;91994;-83
2021/07/03 10:46:39;;;;;;;8.93;8.43;;;47.30;30.50;;;;;;4902800;28;91894;-83
2021/07/03 10:49:08;;;;;;;8.57;8.07;;;47.60;29.30;;;;;;4907093;28;91835;-82
2021/07/03 10:51:41;;;;;;;8.70;8.07;;;47.00;30.20;;;;;;4900315;28;94140;-82
2021/07/03 10:54:16;;;;;;;8.70;8.18;;;47.20;30.30;;;;;;4898844;28;92980;-82
2021/07/03 10:56:44;;;;;;;8.88;8.30;;;47.30;29.90;;;;;;4909327;28;91766;-83
2021/07/03 10:59:12;;;;;;;9.20;8.50;;;46.80;29.70;;;;;;4898332;28;92169;-83
2021/07/03 11:01:38;;;;;;;8.43;7.83;;;46.30;30.00;;;;;;4908513;28;92125;-83
2021/07/03 11:04:15;;;;;;;8.98;8.27;;;46.10;30.10;;;;;;4908046;28;91877;-82
2021/07/03 11:06:49;;;;;;;7.88;7.47;;;46.20;29.50;;;;;;4897479;28;91814;-83
2021/07/03 11:09:26;;;;;;;8.38;7.88;;;45.90;29.50;;;;;;4903358;28;90510;-82
2021/07/03 11:15:17;;;;;;;7.90;7.40;;;45.70;29.10;;;;;;4912807;28;91820;-82
2021/07/03 11:17:43;;;;;;;7.68;7.28;;;45.50;29.10;;;;;;4915842;28;92790;-82
2021/07/03 11:23:32;;;;;;;7.28;6.78;;;45.70;28.80;;;;;;4911567;28;91835;-82
2021/07/03 11:26:24;;;;;;;7.53;7.03;;;45.30;28.70;;;;;;4916004;28;91268;-81
2021/07/03 11:28:52;;;;;;;7.70;7.30;;;44.40;29.50;;;;;;4913950;28;91829;-82
2021/07/03 11:31:20;;;;;;;7.20;6.72;;;44.50;29.70;;;;;;4903717;28;92078;-83
2021/07/03 11:33:45;;;;;;;7.07;6.67;;;44.50;28.50;;;;;;4891254;28;92563;-83
2021/07/03 11:36:15;;;;;;;7.00;6.60;;;44.40;28.70;;;;;;4893503;28;91650;-82
2021/07/03 11:38:40;;;;;;;;;;;44.50;28.30;;;;;;4898185;28;91995;-83
2021/07/03 11:41:06;;;;;;;7.40;7.00;;;44.40;28.90;;;;;;4903915;28;92301;-81
2021/07/03 11:43:32;;;;;;;7.30;6.80;;;44.30;29.50;;;;;;4905693;28;93303;-83
2021/07/03 11:46:00;;;;;;;7.47;6.97;;;44.60;29.80;;;;;;4905814;28;93727;-84
2021/07/03 11:48:27;;;;;;;7.97;7.47;;;45.30;29.10;;;;;;4899082;28;92078;-83
2021/07/03 11:51:00;;;;;;;7.53;7.13;;;45.40;29.00;;;;;;4894374;28;92980;-83
2021/07/03 11:53:28;;;;;;;7.40;6.70;;;45.60;29.10;;;;;;4898485;28;92825;-83
2021/07/03 11:55:56;;;;;;;7.03;6.53;;;45.60;28.20;;;;;;4900885;28;92177;-83
2021/07/03 11:58:27;;;;;;;7.18;6.78;;;45.40;28.00;;;;;;4903877;28;91871;-82
2021/07/03 12:01:02;;;;;;;7.38;6.88;;;45.20;28.00;;;;;;4889351;28;91753;-82
2021/07/03 12:03:30;;;;;;;7.15;6.70;;;45.10;28.60;;;;;;4888212;28;91724;-82
2021/07/03 12:05:57;;;;;;;7.60;7.13;;;45.00;28.00;;;;;;4893635;28;92560;-82
2021/07/03 12:08:29;;;;;;;6.78;6.28;;;45.00;28.20;;;;;;4897000;28;93071;-82
2021/07/03 12:11:00;;;;;;;6.63;6.22;;;44.70;27.90;;;;;;4897990;28;92070;-82
2021/07/03 12:13:38;;;;;;;6.90;6.50;;;44.10;28.20;;;;;;4898575;28;94410;-83
2021/07/03 12:16:10;;;;;;;6.80;6.40;;;42.90;28.70;;;;;;4890908;28;91980;-80
2021/07/03 12:18:46;;;;;;;6.82;6.43;;;41.70;30.30;;;;;;4904868;28;91877;-82
2021/07/03 12:21:18;;;;;;;6.60;6.20;;;40.40;31.30;;;;;;4891046;28;91702;-81
2021/07/03 12:23:46;;;;;;;6.30;5.90;;;39.00;31.90;;;;;;4890941;28;91645;-81
2021/07/03 12:26:14;;;;;;;6.47;6.07;;;38.00;32.10;;;;;;4898318;28;92928;-81
2021/07/03 12:28:54;;;;;;;6.22;5.80;;;37.30;33.20;;;;;;4888955;28;91648;-81
2021/07/03 12:31:45;;;;;;;5.55;5.25;;;36.60;34.70;;;;;;4888878;28;92663;-81
2021/07/03 12:34:25;;;;;;;5.55;5.15;;;35.90;34.40;;;;;;4895236;28;94609;-83
2021/07/03 12:37:01;;;;;;;5.68;5.28;;;35.60;36.70;;;;;;4894787;28;92939;-82
2021/07/03 12:39:27;;;;;;;5.82;5.43;;;35.40;36.90;;;;;;4897799;28;91617;-82
2021/07/03 12:41:56;;;;;;;5.80;5.40;;;35.20;36.00;;;;;;4895476;28;92128;-81
2021/07/03 12:47:43;;;;;;;5.65;5.15;;;36.10;34.80;;;;;;4913486;28;91734;-83
2021/07/03 12:50:40;;;;;;;5.80;5.40;;;36.40;35.40;;;;;;4917993;28;91908;-85
2021/07/03 12:53:12;;;;;;;5.95;5.50;;;36.30;34.40;;;;;;4901534;28;91862;-82
2021/07/03 12:55:44;;;;;;;6.18;5.70;;;36.30;34.60;;;;;;4894127;28;92251;-82
2021/07/03 12:58:20;;;;;;;5.85;5.45;;;36.30;35.00;;;;;;4903578;28;92353;-83
2021/07/03 13:00:47;;;;;;;5.72;5.43;;;36.40;34.30;;;;;;4912778;28;92690;-83
2021/07/03 13:03:14;;;;;;;5.32;5.00;;;36.00;33.90;;;;;;4895441;28;92031;-83
2021/07/03 13:05:40;;;;;;;5.82;5.43;;;35.90;35.10;;;;;;4904831;28;92631;-81
2021/07/03 13:08:06;;;;;;;5.55;5.15;;;35.40;35.00;;;;;;4901311;28;91145;-80
2021/07/03 13:10:32;;;;;;;5.00;4.70;;;35.00;35.10;;;;;;4902037;28;91303;-82
2021/07/03 13:19:42;;;;;;;5.38;4.97;;;33.40;37.80;;;;;;4895914;28;90982;-84
2021/07/03 13:22:08;;;;;;;4.88;4.53;;;33.20;37.20;;;;;;4895406;28;91617;-85
2021/07/03 13:24:34;;;;;;;5.43;5.03;;;33.00;37.60;;;;;;4902381;28;91612;-84
2021/07/03 13:26:59;;;;;;;5.30;5.00;;;32.90;37.30;;;;;;4905666;28;92961;-84
2021/07/03 13:29:25;;;;;;;4.95;4.55;;;32.70;36.90;;;;;;4903721;28;92080;-83
2021/07/03 13:31:51;;;;;;;5.20;4.80;;;32.60;37.50;;;;;;4908292;28;91908;-83
2021/07/03 13:34:17;;;;;;;5.07;4.57;;;32.50;37.60;;;;;;4905712;28;91861;-84
2021/07/03 13:36:43;;;;;;;4.60;4.25;;;32.30;36.80;;;;;;4902459;28;93405;-85
2021/07/03 13:39:09;;;;;;;4.47;4.18;;;32.10;36.70;;;;;;4899019;28;92293;-85
2021/07/03 13:41:35;;;;;;;4.88;4.47;;;31.90;37.20;;;;;;4908872;28;91919;-86
2021/07/03 13:44:01;;;;;;;4.70;4.30;;;31.70;37.80;;;;;;4902648;28;91929;-86
2021/07/03 13:46:27;;;;;;;4.30;4.00;;;31.60;37.60;;;;;;4905145;28;92406;-85
2021/07/03 13:48:53;;;;;;;4.25;4.03;;;31.40;38.00;;;;;;4901928;28;92003;-85
2021/07/03 13:51:18;;;;;;;4.53;4.22;;;31.20;37.60;;;;;;4902196;28;92673;-86
2021/07/03 13:53:45;;;;;;;4.55;4.25;;;31.00;37.70;;;;;;4909120;28;91938;-84
2021/07/03 13:56:11;;;;;;;4.95;4.63;;;30.90;37.80;;;;;;4897876;28;92689;-85
2021/07/03 13:58:37;;;;;;;4.50;4.20;;;30.80;37.70;;;;;;4906253;28;92211;-85
2021/07/03 14:01:06;;;;;;;4.60;4.20;;;30.80;37.70;;;;;;4896909;28;91643;-83
2021/07/03 14:03:32;;;;;;;4.78;4.38;;;30.80;38.20;;;;;;4898341;28;91991;-85
2021/07/03 14:05:58;;;;;;;4.10;3.90;;;30.80;37.30;;;;;;4894074;28;91530;-85
2021/07/03 14:08:23;;;;;;;4.28;3.97;;;30.70;36.70;;;;;;4899162;28;92254;-84
2021/07/03 14:10:49;;;;;;;4.50;4.20;;;30.70;36.70;;;;;;4878881;28;91324;-85
2021/07/03 14:13:15;;;;;;;4.40;4.20;;;30.80;37.40;;;;;;4898595;28;92082;-85
2021/07/03 14:15:42;;;;;;;4.78;4.38;;;30.90;37.30;;;;;;4909183;28;93699;-85
2021/07/03 14:18:09;;;;;;;4.60;4.30;;;31.00;37.30;;;;;;4904380;28;92765;-85
2021/07/03 14:20:35;;;;;;;4.25;4.03;;;31.20;38.30;;;;;;4899949;28;91905;-86
2021/07/03 14:23:01;;;;;;;4.65;4.38;;;31.30;38.10;;;;;;4897229;28;92991;-84
2021/07/03 14:25:26;;;;;;;4.50;4.20;;;31.40;38.00;;;;;;4905613;28;91892;-84
2021/07/03 14:27:53;;;;;;;4.57;4.30;;;31.20;36.70;;;;;;4894414;28;92062;-84
2021/07/03 14:37:05;;;;;;;4.20;3.90;;;30.30;37.50;;;;;;4884395;28;91919;-78
2021/07/03 14:39:30;;;;;;;4.78;4.38;;;29.90;38.80;;;;;;4887127;28;92012;-77
2021/07/03 14:41:56;;;;;;;4.28;3.90;;;29.60;41.40;;;;;;4887101;28;92585;-78
2021/07/03 14:44:22;;;;;;;5.07;4.30;;;29.50;43.60;;;;;;4887364;28;91732;-77
2021/07/03 14:46:47;;;;;;;4.60;4.30;;;29.30;41.50;;;;;;4889560;28;92297;-77
2021/07/03 14:49:13;;;;;;;4.95;4.55;;;29.20;41.30;;;;;;4885636;28;91895;-78
2021/07/03 14:51:39;;;;;;;4.25;4.00;;;29.00;40.20;;;;;;4896817;28;91977;-78
2021/07/03 14:54:05;;;;;;;5.13;4.63;;;29.00;41.90;;;;;;4895021;28;92095;-78
2021/07/03 14:56:31;;;;;;;5.07;4.57;;;29.00;42.20;;;;;;4888508;28;92222;-77
2021/07/03 14:58:56;;;;;;;4.82;4.45;;;28.80;41.10;;;;;;4907591;28;91936;-78
2021/07/03 15:01:22;;;;;;;4.70;4.30;;;28.80;41.30;;;;;;4901355;28;91856;-77
2021/07/03 15:03:49;;;;;;;5.03;4.63;;;28.70;41.50;;;;;;4903569;28;91648;-78
2021/07/03 15:06:15;;;;;;;6.15;4.25;;;28.60;42.80;;;;;;4899895;28;93460;-77
2021/07/03 15:08:41;;;;;;;3.40;3.10;;;28.60;43.00;;;;;;4886736;28;93035;-78
2021/07/03 15:11:06;;;;;;;4.93;4.50;;;28.60;42.80;;;;;;4888070;28;91606;-78
2021/07/03 15:13:33;;;;;;;4.80;4.40;;;28.50;43.50;;;;;;4888018;28;91750;-78
2021/07/03 15:16:00;;;;;;;4.55;4.15;;;28.40;43.00;;;;;;4886047;28;92305;-78
2021/07/03 15:18:26;;;;;;;4.25;3.95;;;28.40;41.80;;;;;;4887249;28;91883;-77
2021/07/03 15:20:52;;;;;;;6.05;4.45;;;28.40;42.50;;;;;;4884520;28;91855;-77
2021/07/03 15:23:17;;;;;;;4.90;4.50;;;28.40;43.20;;;;;;4887337;28;90529;-78
2021/07/03 15:25:43;;;;;;;4.80;4.40;;;28.40;43.80;;;;;;4886134;28;92648;-77
2021/07/03 15:28:09;;;;;;;5.80;4.50;;;28.30;43.60;;;;;;4886862;28;92155;-77
2021/07/03 15:30:34;;;;;;;4.80;4.50;;;28.20;44.10;;;;;;4884807;28;92658;-76
2021/07/03 15:33:00;;;;;;;3.45;2.95;;;28.20;44.10;;;;;;4892188;28;91755;-76
2021/07/03 15:35:26;;;;;;;4.90;4.53;;;28.10;45.20;;;;;;4885796;28;91711;-76
2021/07/03 15:37:52;;;;;;;4.78;4.47;;;28.00;44.30;;;;;;4890941;28;91967;-76
2021/07/03 15:40:20;;;;;;;5.25;4.85;;;27.80;44.60;;;;;;4884298;28;92416;-76
2021/07/03 15:42:46;;;;;;;5.05;4.65;;;27.70;45.40;;;;;;4886803;28;91954;-76
2021/07/03 15:45:12;;;;;;;4.90;4.60;;;27.50;44.80;;;;;;4883845;28;92223;-76
2021/07/03 15:47:38;;;;;;;5.05;4.65;;;27.30;45.20;;;;;;4886366;28;91745;-76
2021/07/03 15:50:06;;;;;;;5.00;4.70;;;27.20;47.50;;;;;;4885969;28;92113;-76
2021/07/03 15:52:32;;;;;;;5.60;5.20;;;27.10;46.20;;;;;;4888874;28;92133;-76
2021/07/03 15:54:58;;;;;;;5.90;5.40;;;27.00;46.30;;;;;;4887845;28;92686;-76
2021/07/03 15:57:24;;;;;;;5.63;5.13;;;26.60;46.00;;;;;;4896449;28;92427;-78
2021/07/03 15:59:49;;;;;;;4.97;4.57;;;26.50;46.40;;;;;;4894040;28;92096;-77
2021/07/03 16:02:15;;;;;;;5.50;5.05;;;26.40;47.90;;;;;;4883209;28;93203;-77
2021/07/03 16:04:41;;;;;;;6.88;5.10;;;26.00;50.20;;;;;;4881655;28;92777;-77
2021/07/03 16:07:08;;;;;;;5.05;4.72;;;25.80;51.70;;;;;;4885843;28;92206;-77
2021/07/03 16:09:35;;;;;;;3.97;3.63;;;25.80;51.60;;;;;;4888802;28;92058;-77
2021/07/03 16:12:16;;;;;;;6.10;5.50;;;;;;;;;;4872047;28;90783;-77
2021/07/03 16:14:42;;;;;;;5.60;5.15;;;25.20;54.10;;;;;;4888805;28;91990;-76
2021/07/03 16:17:08;;;;;;;5.72;5.22;;;;;;;;;;4884611;28;92716;-77
2021/07/03 16:19:33;;;;;;;5.60;5.10;;;25.20;56.20;;;;;;4883063;28;92882;-77
2021/07/03 16:21:59;;;;;;;5.88;5.38;;;24.90;56.70;;;;;;4885079;28;91874;-76
2021/07/03 16:24:25;;;;;;;6.28;5.63;;;25.00;56.60;;;;;;4883825;28;93211;-77
2021/07/03 16:26:51;;;;;;;5.38;4.95;;;;;;;;;;4900939;28;92212;-82
2021/07/03 16:29:16;;;;;;;12.18;5.57;;;24.30;59.00;;;;;;4904400;28;90977;-81
2021/07/03 16:31:42;;;;;;;4.65;4.10;;;24.50;59.60;;;;;;4902373;28;91681;-81
2021/07/03 16:34:08;;;;;;;6.50;5.90;;;24.40;61.50;;;;;;4904413;28;92635;-82
2021/07/03 16:36:33;;;;;;;4.57;3.92;;;24.30;61.80;;;;;;4905311;28;92386;-82
2021/07/03 16:38:59;;;;;;;5.82;5.28;;;24.20;65.00;;;;;;4894945;28;92336;-84
2021/07/03 16:41:25;;;;;;;6.18;5.68;;;24.00;65.80;;;;;;4893833;28;91929;-83
2021/07/03 16:43:51;;;;;;;5.07;4.30;;;24.00;66.60;;;;;;4895679;28;93107;-83
2021/07/03 16:46:17;;;;;;;5.80;5.30;;;24.00;66.00;;;;;;4901985;28;92995;-83
2021/07/03 16:48:43;;;;;;;6.55;5.53;;;23.80;67.70;;;;;;4893464;28;91176;-81